Time;durP1;ratioP1;P1;durP2;ratioP2;P2;SDS_P1;SDS_P2;PMS_P1;PMS_P2;Temp;Humidity;BMP_temperature;BMP_pressure;BME280_temperature;BME280_humidity;BME280_pressure;Samples;Min_cycle;Max_cycle;Signal;HPM_P1;HPM_P2
2021/11/29 00:01:06;;;;;;;5.45;4.80;;;5.60;99.90;;;5.88;80.92;100362.66;5052265;28;20041;-73
2021/11/29 00:03:35;;;;;;;5.20;3.80;;;5.70;99.90;;;5.88;80.90;100349.53;5052501;28;20052;-72
2021/11/29 00:06:05;;;;;;;6.10;3.87;;;5.70;99.90;;;5.86;80.35;100353.91;5052487;28;20033;-71
2021/11/29 00:08:34;;;;;;;5.83;3.93;;;5.70;99.90;;;5.83;80.37;100358.19;5052191;28;20040;-71
2021/11/29 00:11:03;;;;;;;6.13;5.13;;;5.70;99.90;;;5.75;80.40;100354.66;5052746;28;20132;-70
2021/11/29 00:13:31;;;;;;;6.03;4.40;;;5.60;99.90;;;5.62;80.56;100347.56;5052386;28;20398;-71
2021/11/29 00:16:00;;;;;;;5.43;4.27;;;5.60;99.90;;;5.56;81.04;100358.88;5052188;28;20068;-72
2021/11/29 00:18:30;;;;;;;5.87;4.60;;;5.40;99.90;;;5.63;81.05;100381.69;5052430;28;20048;-70
2021/11/29 00:20:58;;;;;;;4.27;3.90;;;5.40;99.90;;;5.53;81.44;100385.09;5087104;28;20144;-71
2021/11/29 00:23:28;;;;;;;4.63;4.27;;;5.30;99.90;;;5.00;81.53;100276.28;5055887;28;20080;-72
2021/11/29 00:25:57;;;;;;;4.82;4.32;;;5.40;99.90;;;5.60;81.60;100388.63;5056208;28;20045;-72
2021/11/29 00:28:26;;;;;;;4.23;3.93;;;5.40;99.90;;;5.69;81.56;100386.94;5055730;28;20041;-72
2021/11/29 00:30:54;;;;;;;4.97;4.57;;;5.50;99.90;;;5.78;81.06;100375.66;5054842;28;20111;-73
2021/11/29 00:33:23;;;;;;;4.70;4.37;;;5.60;99.90;;;5.80;81.01;100373.91;5055959;28;20041;-72
2021/11/29 00:35:52;;;;;;;5.07;4.67;;;5.60;99.90;;;5.83;80.69;100384.44;5055668;28;20048;-72
2021/11/29 00:38:20;;;;;;;4.23;3.83;;;5.70;99.90;;;5.88;80.13;100386.28;5055609;28;20072;-72
2021/11/29 00:40:50;;;;;;;5.50;4.00;;;5.70;99.90;;;5.88;80.10;100381.03;5055492;28;20041;-72
2021/11/29 00:43:19;;;;;;;5.18;4.68;;;5.70;99.90;;;5.88;79.88;100380.13;5055850;28;20077;-70
2021/11/29 00:45:47;;;;;;;5.07;4.43;;;5.70;99.90;;;5.88;79.79;100383.66;5055458;28;20076;-70
2021/11/29 00:48:16;;;;;;;5.80;4.20;;;5.70;99.90;;;5.86;79.78;100380.13;5055369;28;20494;-70
2021/11/29 00:50:44;;;;;;;4.20;3.90;;;5.70;99.90;;;5.86;79.80;100380.13;5055373;28;20379;-70
2021/11/29 00:53:13;;;;;;;4.60;4.27;;;5.70;99.90;;;5.83;79.34;100380.09;5055614;28;20075;-70
2021/11/29 00:55:42;;;;;;;4.73;4.33;;;5.70;99.90;;;5.60;79.17;100363.28;5055223;28;20045;-70
2021/11/29 00:58:12;;;;;;;4.93;4.63;;;5.60;99.90;;;5.74;79.89;100374.75;5055598;28;20040;-70
2021/11/29 01:00:41;;;;;;;4.50;4.10;;;5.50;99.90;;;5.70;79.91;100372.97;5055163;28;20049;-70
2021/11/29 01:03:09;;;;;;;5.10;4.73;;;5.50;99.90;;;5.68;79.73;100373.81;5055430;28;20071;-70
2021/11/29 01:05:38;;;;;;;4.83;4.53;;;5.50;99.90;;;5.65;80.10;100358.97;5055385;28;20045;-70
2021/11/29 01:08:07;;;;;;;5.47;4.67;;;5.50;99.90;;;5.64;79.84;100367.69;5055045;28;20494;-70
2021/11/29 01:10:35;;;;;;;5.47;4.83;;;5.50;99.90;;;5.63;79.90;100372.94;5055209;28;20045;-70
2021/11/29 01:13:04;;;;;;;4.70;4.30;;;5.50;99.90;;;5.43;80.14;100349.16;5053929;28;20055;-70
2021/11/29 01:15:38;;;;;;;4.97;4.57;;;5.50;99.90;;;5.61;80.16;100370.31;5054963;28;20068;-70
2021/11/29 01:18:11;;;;;;;9.07;4.73;;;5.40;99.90;;;5.50;80.11;100353.59;5054907;28;20037;-70
2021/11/29 01:20:43;;;;;;;4.70;4.30;;;5.50;99.90;;;5.47;79.91;100343.09;5054822;28;20041;-70
2021/11/29 01:23:13;;;;;;;4.53;4.10;;;5.50;99.90;;;5.69;79.72;100392.19;5055248;28;20442;-69
2021/11/29 01:25:44;;;;;;;5.45;4.95;;;5.60;99.90;;;5.70;79.40;100393.97;5053717;28;20061;-70
2021/11/29 01:28:14;;;;;;;7.23;4.60;;;5.60;99.90;;;5.75;79.52;100402.75;5054744;28;20045;-70
2021/11/29 01:30:44;;;;;;;4.90;4.60;;;5.60;99.90;;;5.61;79.78;100414.91;5054340;28;20475;-69
2021/11/29 01:33:13;;;;;;;4.97;4.60;;;5.50;99.90;;;5.62;80.08;100394.75;5054115;28;20567;-69
2021/11/29 01:35:42;;;;;;;5.27;4.87;;;5.60;99.90;;;5.57;80.04;100414.84;5054681;28;20068;-70
2021/11/29 01:38:11;;;;;;;5.60;5.03;;;5.50;99.90;;;5.69;80.13;100428.06;5053538;28;20048;-69
2021/11/29 01:40:39;;;;;;;5.60;5.10;;;5.50;99.90;;;5.73;80.32;100425.47;5054372;28;20037;-70
2021/11/29 01:43:13;;;;;;;6.03;5.63;;;5.60;99.90;;;5.86;80.02;100437.88;5053376;28;20049;-70
2021/11/29 01:45:46;;;;;;;7.43;5.20;;;5.70;99.90;;;5.53;79.96;100378.97;5054677;28;20461;-70
2021/11/29 01:48:15;;;;;;;5.53;5.03;;;5.70;99.90;;;5.63;80.10;100439.41;5054355;28;20438;-71
2021/11/29 01:50:46;;;;;;;5.50;5.03;;;5.60;99.90;;;5.02;81.08;100434.41;5054737;28;20131;-70
2021/11/29 01:53:15;;;;;;;5.73;5.23;;;5.20;99.90;;;4.52;82.83;100429.47;5054613;28;20049;-70
2021/11/29 01:55:45;;;;;;;5.87;5.37;;;4.60;99.90;;;4.34;83.70;100424.00;5054187;28;20049;-70
2021/11/29 01:58:14;;;;;;;5.13;4.70;;;4.30;99.90;;;4.58;84.69;100429.56;5054157;28;20045;-70
2021/11/29 02:00:48;;;;;;;5.57;5.07;;;4.30;99.90;;;4.58;84.23;100434.81;5054029;28;20504;-71
2021/11/29 02:03:18;;;;;;;5.27;4.77;;;4.40;99.90;;;4.89;84.10;100438.66;5054020;28;20552;-71
2021/11/29 02:05:47;;;;;;;6.05;5.45;;;4.70;99.90;;;4.94;83.67;100431.72;5054088;28;20112;-71
2021/11/29 02:08:18;;;;;;;5.60;5.13;;;4.80;99.90;;;5.07;83.78;100461.56;5054662;28;20063;-71
2021/11/29 02:10:46;;;;;;;6.00;5.40;;;4.90;99.90;;;4.95;83.59;100419.50;5054385;28;20057;-71
2021/11/29 02:13:18;;;;;;;5.20;4.70;;;5.00;99.90;;;5.27;83.31;100444.28;5054030;28;20462;-71
2021/11/29 02:15:51;;;;;;;6.20;5.60;;;5.10;99.90;;;5.36;83.25;100445.25;5054051;28;20045;-71
2021/11/29 02:18:23;;;;;;;5.97;5.37;;;5.20;99.90;;;5.29;82.83;100437.31;5054043;28;20487;-70
2021/11/29 02:21:09;;;;;;;6.03;5.10;;;5.30;99.90;;;5.27;82.51;100418.06;5053630;28;20103;-70
2021/11/29 02:23:41;;;;;;;5.30;4.80;;;5.20;99.90;;;5.03;82.43;100383.78;5054242;28;20045;-70
2021/11/29 02:26:10;;;;;;;6.03;5.50;;;5.30;99.90;;;5.59;82.42;100453.34;5054111;28;20053;-70
2021/11/29 02:28:41;;;;;;;5.67;5.17;;;5.40;99.90;;;5.37;81.84;100393.69;5053622;28;20052;-70
2021/11/29 02:31:14;;;;;;;5.37;4.87;;;5.50;99.90;;;5.69;81.50;100439.41;5054076;28;20074;-70
2021/11/29 02:33:43;;;;;;;5.03;4.40;;;5.50;99.90;;;5.68;80.79;100440.31;5053730;28;20402;-70
2021/11/29 02:36:12;;;;;;;5.47;4.77;;;5.50;99.90;;;5.62;81.12;100434.13;5053384;28;20402;-70
2021/11/29 02:38:41;;;;;;;5.72;4.65;;;5.50;99.90;;;5.59;80.93;100426.22;5053601;28;20049;-70
2021/11/29 02:41:11;;;;;;;4.40;4.00;;;5.40;99.90;;;5.60;80.65;100431.47;5053182;28;20103;-70
2021/11/29 02:43:40;;;;;;;4.43;4.00;;;5.40;99.90;;;5.58;81.05;100434.94;5052484;28;20079;-70
2021/11/29 02:46:08;;;;;;;4.87;4.30;;;5.40;99.90;;;5.62;81.19;100428.88;5052166;28;20047;-71
2021/11/29 02:48:47;;;;;;;4.40;4.07;;;5.40;99.90;;;5.56;80.59;100434.94;5053164;28;20079;-70
2021/11/29 02:51:39;;;;;;;4.70;4.20;;;5.40;99.90;;;5.62;81.07;100437.63;5053727;28;20076;-70
2021/11/29 02:54:10;;;;;;;4.87;4.57;;;5.40;99.90;;;5.49;80.51;100401.69;5053443;28;20041;-70
2021/11/29 02:56:42;;;;;;;4.70;4.40;;;5.50;99.90;;;5.62;80.70;100428.88;5053334;28;20482;-70
2021/11/29 02:59:13;;;;;;;5.27;4.77;;;5.40;99.90;;;5.61;80.71;100419.25;5053019;28;20486;-70
2021/11/29 03:01:51;;;;;;;5.27;4.87;;;5.40;99.90;;;5.63;80.64;100413.16;5053208;28;20094;-70
2021/11/29 03:04:20;;;;;;;5.10;4.57;;;5.40;99.90;;;5.56;80.66;100413.97;5053329;28;20148;-70
2021/11/29 03:06:50;;;;;;;4.83;4.43;;;5.40;99.90;;;5.37;81.04;100389.34;5052114;28;20541;-70
2021/11/29 03:09:19;;;;;;;4.63;4.32;;;5.30;99.90;;;5.55;81.33;100413.97;5052895;28;20052;-70
2021/11/29 03:11:48;;;;;;;4.93;4.47;;;5.30;99.90;;;5.35;81.37;100382.31;5052689;28;20120;-70
2021/11/29 03:14:18;;;;;;;6.57;4.70;;;5.30;99.90;;;5.59;81.47;100408.75;5052753;28;20044;-70
2021/11/29 03:16:47;;;;;;;4.88;4.10;;;5.40;99.90;;;5.55;81.33;100406.97;5053067;28;20045;-70
2021/11/29 03:19:15;;;;;;;5.13;4.63;;;5.40;99.90;;;5.44;81.43;100391.13;5052686;28;20573;-70
2021/11/29 03:21:44;;;;;;;6.80;5.37;;;5.40;99.90;;;5.52;81.56;100416.56;5053106;28;20454;-70
2021/11/29 03:24:14;;;;;;;4.93;4.60;;;5.40;99.90;;;5.48;82.06;100418.25;5052443;28;20068;-70
2021/11/29 03:26:42;;;;;;;5.15;4.65;;;5.30;99.90;;;5.47;82.14;100432.25;5052726;28;20037;-70
2021/11/29 03:29:14;;;;;;;5.23;4.83;;;5.30;99.90;;;5.53;82.56;100443.66;5052659;28;20048;-70
2021/11/29 03:31:44;;;;;;;4.10;3.80;;;5.30;99.90;;;5.58;82.17;100459.44;5052673;28;20041;-70
2021/11/29 03:34:15;;;;;;;4.57;4.18;;;5.40;99.90;;;5.45;82.14;100439.22;5052890;28;20045;-70
2021/11/29 03:36:46;;;;;;;4.57;4.27;;;5.40;99.90;;;5.62;81.66;100461.22;5052582;28;20544;-70
2021/11/29 03:39:17;;;;;;;;;;;5.50;99.90;;;5.73;81.67;100467.44;5085563;28;20048;-70
2021/11/29 03:41:47;;;;;;;9.00;4.77;;;5.60;99.90;;;5.84;81.59;100468.47;5068162;28;20004;-70
2021/11/29 03:44:16;;;;;;;9.77;4.73;;;5.70;99.90;;;5.93;80.94;100479.03;5052746;28;20128;-70
2021/11/29 03:46:47;;;;;;;9.43;4.90;;;5.80;99.90;;;5.99;80.88;100467.69;5051348;28;20041;-70
2021/11/29 03:49:19;;;;;;;12.63;5.40;;;5.90;99.90;;;5.96;80.19;100447.53;5051387;28;20049;-70
2021/11/29 03:51:48;;;;;;;10.47;4.90;;;6.00;99.90;;;6.08;80.26;100457.25;5052458;28;20061;-71
2021/11/29 03:54:18;;;;;;;8.70;4.87;;;6.00;99.90;;;6.18;79.45;100451.19;5054073;28;20076;-70
2021/11/29 03:56:47;;;;;;;7.25;5.10;;;6.10;99.90;;;6.17;78.99;100439.84;5056699;28;20128;-70
2021/11/29 03:59:16;;;;;;;7.77;4.67;;;6.20;99.90;;;6.18;78.45;100424.94;5056656;28;20120;-70
2021/11/29 04:01:48;;;;;;;12.60;5.63;;;6.20;99.90;;;6.44;78.00;100453.97;5056228;28;20037;-70
2021/11/29 04:04:17;;;;;;;8.13;4.90;;;6.30;99.90;;;6.45;77.39;100448.72;5056498;28;20140;-70
2021/11/29 04:06:46;;;;;;;11.67;5.00;;;6.30;99.90;;;6.33;76.26;100451.28;5056245;28;20087;-70
2021/11/29 04:09:14;;;;;;;9.03;4.67;;;6.30;99.90;;;6.42;75.80;100461.84;5056202;28;20076;-70
2021/11/29 04:11:44;;;;;;;12.43;5.30;;;6.30;99.90;;;6.21;76.46;100469.59;5054845;28;20106;-70
2021/11/29 04:14:12;;;;;;;10.77;5.20;;;6.10;99.90;;;6.27;76.68;100470.50;5056099;28;20048;-70
2021/11/29 04:16:41;;;;;;;8.30;4.77;;;6.00;99.90;;;5.97;76.64;100445.81;5056363;28;20041;-70
2021/11/29 04:19:09;;;;;;;15.77;5.37;;;6.00;99.90;;;6.01;76.70;100452.81;5055962;28;20044;-70
2021/11/29 04:21:38;;;;;;;17.83;5.10;;;5.90;99.90;;;5.90;76.57;100429.16;5055812;28;20043;-70
2021/11/29 04:24:06;;;;;;;10.60;5.27;;;5.90;99.90;;;6.00;75.28;100415.19;5055801;28;20041;-69
2021/11/29 04:26:35;;;;;;;10.17;5.07;;;6.10;99.90;;;6.12;74.70;100462.53;5056294;28;20064;-70
2021/11/29 04:29:15;;;;;;;13.57;5.13;;;6.00;99.90;;;6.22;74.18;100456.47;5056093;28;20045;-70
2021/11/29 04:31:46;;;;;;;11.40;4.90;;;6.00;99.90;;;6.31;72.84;100456.53;5054819;28;20061;-70
2021/11/29 04:34:15;;;;;;;17.00;5.57;;;6.20;99.90;;;6.45;72.16;100459.22;5055773;28;20091;-70
2021/11/29 04:36:44;;;;;;;11.23;4.60;;;6.30;99.90;;;6.33;71.50;100417.13;5055678;28;20064;-70
2021/11/29 04:39:13;;;;;;;16.80;5.10;;;6.40;99.90;;;6.41;70.95;100444.31;5055904;28;20044;-70
2021/11/29 04:41:42;;;;;;;15.33;5.10;;;6.40;99.90;;;6.41;71.09;100467.09;5055762;28;20148;-70
2021/11/29 04:44:12;;;;;;;8.97;4.20;;;6.40;99.90;;;6.42;70.68;100463.59;5055550;28;20045;-69
2021/11/29 04:46:40;;;;;;;12.40;5.10;;;6.40;99.90;;;6.48;70.06;100474.16;5055542;28;20041;-70
2021/11/29 04:49:09;;;;;;;13.70;5.20;;;6.40;99.90;;;6.42;69.92;100432.97;5055758;28;20041;-71
2021/11/29 04:51:37;;;;;;;10.70;4.90;;;6.60;99.90;;;6.49;68.99;100470.63;5071058;28;20056;-70
2021/11/29 04:54:06;;;;;;;13.47;5.33;;;6.50;99.90;;;6.55;69.26;100483.81;5055636;28;20041;-71
2021/11/29 04:56:34;;;;;;;14.30;4.90;;;6.50;99.90;;;6.42;67.80;100442.59;5055340;28;20095;-70
2021/11/29 04:59:04;;;;;;;16.63;5.07;;;6.60;99.90;;;6.63;67.77;100467.22;5055268;28;20075;-70
2021/11/29 05:01:36;;;;;;;10.10;4.83;;;6.50;99.90;;;6.63;67.92;100476.84;5054515;28;20049;-71
2021/11/29 05:04:05;;;;;;;16.47;4.90;;;6.60;99.90;;;6.66;67.49;100467.22;5055161;28;20051;-70
2021/11/29 05:06:36;;;;;;;16.33;5.70;;;6.70;99.90;;;6.95;67.33;100481.38;5054283;28;20056;-71
2021/11/29 05:09:06;;;;;;;16.90;5.10;;;6.80;99.90;;;7.05;66.95;100485.78;5055442;28;20456;-71
2021/11/29 05:11:34;;;;;;;10.63;4.90;;;6.90;99.90;;;7.21;66.63;100490.25;5055074;28;20098;-71
2021/11/29 05:14:04;;;;;;;8.90;4.30;;;7.10;99.90;;;7.34;66.69;100504.28;5054959;28;20049;-71
2021/11/29 05:16:35;;;;;;;8.43;4.70;;;7.20;99.90;;;7.25;67.24;100485.84;5055177;28;20094;-72
2021/11/29 05:19:04;;;;;;;14.32;4.57;;;7.30;99.90;;;7.48;67.84;100505.19;5054958;28;20055;-71
2021/11/29 05:21:33;;;;;;;10.98;5.03;;;7.30;99.90;;;7.56;67.61;100506.09;5053795;28;20132;-70
2021/11/29 05:24:02;;;;;;;13.68;5.47;;;7.40;99.90;;;7.45;67.54;100499.94;5054783;28;20063;-69
2021/11/29 05:26:30;;;;;;;10.77;5.13;;;7.40;99.90;;;7.43;68.14;100499.06;5055099;28;20036;-70
2021/11/29 05:29:00;;;;;;;13.68;5.25;;;7.30;99.90;;;7.38;67.46;100503.41;5054959;28;20552;-70
2021/11/29 05:31:28;;;;;;;9.73;4.67;;;7.30;99.90;;;7.20;67.67;100509.50;5054645;28;20472;-70
2021/11/29 05:33:58;;;;;;;20.33;6.13;;;7.20;99.90;;;7.25;67.29;100499.91;5054621;28;20323;-71
2021/11/29 05:36:27;;;;;;;20.33;5.47;;;7.20;99.90;;;7.10;67.38;100512.97;5053595;28;20052;-71
2021/11/29 05:38:55;;;;;;;16.48;5.28;;;7.10;99.90;;;7.27;66.91;100511.31;5055066;28;20051;-71
2021/11/29 05:41:24;;;;;;;19.38;5.90;;;7.20;99.90;;;7.28;67.31;100513.03;5054442;28;20064;-71
2021/11/29 05:43:52;;;;;;;16.20;5.05;;;7.20;99.90;;;7.04;66.15;100468.28;5054305;28;20047;-71
2021/11/29 05:46:22;;;;;;;13.75;5.25;;;7.20;99.90;;;7.40;64.01;100517.47;5054369;28;20556;-71
2021/11/29 05:48:52;;;;;;;10.68;4.60;;;7.40;99.90;;;7.51;63.28;100518.34;5054337;28;20487;-71
2021/11/29 05:51:22;;;;;;;11.13;4.45;;;7.50;99.90;;;7.52;63.63;100514.88;5054263;28;20095;-72
2021/11/29 05:53:51;;;;;;;15.48;5.13;;;7.60;99.90;;;7.62;63.72;100561.38;5054241;28;20045;-72
2021/11/29 05:56:20;;;;;;;12.17;5.17;;;7.60;99.90;;;7.65;63.95;100550.84;5054163;28;20045;-72
2021/11/29 05:58:48;;;;;;;17.90;5.72;;;7.60;99.90;;;7.68;65.73;100553.50;5054440;28;20107;-71
2021/11/29 06:01:16;;;;;;;12.15;4.95;;;7.60;99.90;;;7.57;67.08;100568.38;5069749;28;20072;-72
2021/11/29 06:03:45;;;;;;;12.75;4.97;;;7.60;99.90;;;7.47;68.24;100532.38;5054153;28;20051;-71
2021/11/29 06:06:14;;;;;;;17.08;4.68;;;7.60;99.90;;;7.63;68.61;100563.13;5053928;28;20075;-72
2021/11/29 06:08:45;;;;;;;12.15;4.90;;;7.60;99.90;;;7.72;68.75;100554.38;5054054;28;20410;-71
2021/11/29 06:11:14;;;;;;;15.60;4.50;;;7.60;99.90;;;7.60;69.26;100534.19;5054216;28;20449;-71
2021/11/29 06:13:42;;;;;;;12.63;5.63;;;7.60;99.90;;;7.67;69.01;100558.75;5053835;28;20047;-71
2021/11/29 06:16:11;;;;;;;9.50;4.97;;;7.50;99.90;;;7.63;69.47;100555.22;5053778;28;20108;-71
2021/11/29 06:18:40;;;;;;;10.50;4.35;;;7.60;99.90;;;7.62;69.43;100552.59;5053736;28;20052;-71
2021/11/29 06:21:09;;;;;;;15.80;5.05;;;7.50;99.90;;;7.47;69.69;100549.94;5053752;28;20071;-71
2021/11/29 06:23:38;;;;;;;13.05;4.80;;;7.40;99.90;;;7.59;69.50;100558.72;5053645;28;20402;-71
2021/11/29 06:26:07;;;;;;;15.93;5.25;;;7.50;99.90;;;7.32;70.00;100571.78;5053942;28;20406;-71
2021/11/29 06:28:37;;;;;;;14.63;5.40;;;7.30;99.90;;;7.32;70.40;100556.91;5052562;28;20602;-71
2021/11/29 06:31:05;;;;;;;11.98;5.28;;;7.30;99.90;;;7.45;70.31;100565.72;5053836;28;20049;-72
2021/11/29 06:33:33;;;;;;;13.13;5.03;;;7.30;99.90;;;7.48;70.47;100578.00;5053951;28;20040;-71
2021/11/29 06:36:03;;;;;;;11.35;4.95;;;7.20;99.90;;;7.43;70.33;100575.38;5053714;28;20049;-71
2021/11/29 06:38:32;;;;;;;13.25;5.20;;;7.20;99.90;;;7.40;69.98;100572.69;5053459;28;20131;-71
2021/11/29 06:41:01;;;;;;;10.98;5.00;;;7.20;99.90;;;7.17;70.53;100542.81;5085828;28;20043;-71
2021/11/29 06:43:31;;;;;;;15.15;4.97;;;7.10;99.90;;;6.88;71.13;100541.81;5052092;28;20497;-72
2021/11/29 06:45:59;;;;;;;13.30;5.05;;;6.80;99.90;;;6.99;71.39;100571.63;5053250;28;20037;-72
2021/11/29 06:48:28;;;;;;;15.45;5.18;;;6.80;99.90;;;6.97;71.48;100571.63;5053407;28;20041;-71
2021/11/29 06:50:56;;;;;;;19.15;5.95;;;6.80;99.90;;;6.79;72.08;100576.81;5053126;28;20483;-71
2021/11/29 06:53:25;;;;;;;17.30;5.63;;;6.60;99.90;;;6.76;71.13;100576.78;5053251;28;20414;-71
2021/11/29 06:55:56;;;;;;;13.37;5.60;;;6.60;99.90;;;6.95;70.58;100580.41;5051844;28;20475;-71
2021/11/29 06:58:25;;;;;;;17.33;5.80;;;6.80;99.90;;;6.94;69.11;100587.41;5053332;28;20088;-70
2021/11/29 07:00:55;;;;;;;11.40;5.00;;;6.80;99.90;;;7.18;67.71;100594.56;5053078;28;20426;-70
2021/11/29 07:03:23;;;;;;;12.35;5.20;;;7.00;99.90;;;7.23;66.00;100592.81;5053141;28;20380;-71
2021/11/29 07:05:52;;;;;;;18.05;6.32;;;7.10;99.90;;;7.48;65.12;100596.41;5053451;28;20053;-70
2021/11/29 07:08:21;;;;;;;17.77;5.93;;;7.40;99.90;;;7.37;64.03;100574.44;5053042;28;20111;-70
2021/11/29 07:10:51;;;;;;;15.55;4.72;;;7.40;99.90;;;7.59;62.71;100595.56;5052650;28;20072;-71
2021/11/29 07:13:20;;;;;;;18.23;4.82;;;7.50;99.90;;;7.71;62.15;100600.88;5052735;28;20049;-70
2021/11/29 07:15:49;;;;;;;14.10;5.00;;;7.60;99.90;;;7.81;61.30;100601.78;5053339;28;20075;-71
2021/11/29 07:18:19;;;;;;;15.10;5.32;;;7.80;99.90;;;7.81;61.59;100607.03;5052964;28;20128;-70
2021/11/29 07:20:47;;;;;;;12.73;5.18;;;7.80;99.90;;;7.70;62.09;100611.41;5052959;28;20076;-71
2021/11/29 07:23:16;;;;;;;14.73;5.07;;;7.60;99.90;;;7.76;62.77;100614.91;5053092;28;20071;-71
2021/11/29 07:25:44;;;;;;;18.55;4.97;;;7.70;99.90;;;7.72;63.10;100589.50;5052443;28;20049;-71
2021/11/29 07:28:13;;;;;;;22.08;5.53;;;7.80;99.90;;;7.90;64.04;100614.94;5052275;28;20114;-71
2021/11/29 07:30:42;;;;;;;16.13;5.40;;;7.80;99.90;;;7.94;63.79;100587.75;5052520;28;20045;-71
2021/11/29 07:33:10;;;;;;;20.40;5.38;;;8.00;99.90;;;8.02;64.02;100621.13;5051483;28;20073;-71
2021/11/29 07:35:41;;;;;;;18.77;5.20;;;8.00;99.90;;;8.04;63.68;100594.78;5052518;28;20491;-71
2021/11/29 07:38:09;;;;;;;;;;;8.10;99.90;;;8.21;63.17;100625.56;5053469;28;20107;-71
2021/11/29 07:40:38;;;;;;;13.48;5.13;;;8.20;99.90;;;8.29;63.01;100633.50;5052775;28;19956;-76
2021/11/29 07:43:09;;;;;;;16.25;5.22;;;8.20;99.90;;;7.95;63.56;100629.91;5052459;28;20044;-72
2021/11/29 07:45:39;;;;;;;12.57;4.93;;;8.10;99.90;;;7.91;64.19;100627.25;5052252;28;20045;-76
2021/11/29 07:48:08;;;;;;;13.10;5.43;;;7.90;99.90;;;8.00;63.30;100612.34;5052653;28;20052;-75
2021/11/29 07:50:38;;;;;;;19.73;5.50;;;8.10;99.90;;;7.94;63.45;100633.41;5052978;28;20118;-76
2021/11/29 07:53:07;;;;;;;13.43;4.57;;;8.00;99.90;;;7.97;63.19;100633.44;5052348;28;20056;-71
2021/11/29 07:55:36;;;;;;;8.85;4.35;;;7.90;99.90;;;8.00;63.27;100628.16;5052337;28;20081;-78
2021/11/29 07:58:07;;;;;;;15.23;4.85;;;8.00;99.90;;;7.98;62.98;100614.09;5051177;28;20144;-77
2021/11/29 08:00:38;;;;;;;14.70;5.05;;;8.10;99.90;;;8.11;63.42;100650.13;5052605;28;20044;-78
2021/11/29 08:03:08;;;;;;;16.73;5.30;;;8.20;99.90;;;8.41;63.31;100658.97;5052534;28;20051;-79
2021/11/29 08:05:38;;;;;;;16.02;5.00;;;8.30;99.90;;;8.66;63.04;100659.00;5051967;28;20041;-78
2021/11/29 08:08:10;;;;;;;;;;;8.50;99.90;;;8.98;63.19;100662.47;5052931;28;20140;-74
2021/11/29 08:10:39;;;;;;;;;;;8.90;99.90;;;9.09;63.28;100678.28;5053724;28;19959;-73
2021/11/29 08:13:10;;;;;;;13.13;4.43;;;9.10;99.90;;;9.04;64.41;100673.00;5051908;28;19927;-70
2021/11/29 08:15:38;;;;;;;;;;;9.10;99.90;;;8.93;66.42;100679.19;5051546;28;20060;-71
2021/11/29 08:18:10;;;;;;;14.90;5.05;;;9.00;99.90;;;8.70;67.08;100654.59;5052399;28;19925;-73
2021/11/29 08:20:39;;;;;;;17.67;5.32;;;8.80;99.90;;;8.72;67.88;100685.34;5052197;28;20045;-77
2021/11/29 08:23:09;;;;;;;18.67;5.70;;;8.70;99.90;;;8.06;69.46;100677.31;5051988;28;20040;-73
2021/11/29 08:25:40;;;;;;;14.93;5.07;;;8.20;99.90;;;8.06;70.33;100682.59;5052460;28;20052;-81
2021/11/29 08:28:10;;;;;;;15.80;5.85;;;8.10;99.90;;;8.07;70.45;100677.31;5052057;28;20092;-76
2021/11/29 08:30:40;;;;;;;16.52;5.75;;;8.10;99.90;;;8.10;70.82;100682.63;5052083;28;20048;-74
2021/11/29 08:33:12;;;;;;;16.67;5.03;;;8.10;99.90;;;8.18;70.23;100677.34;5052045;28;20056;-73
2021/11/29 08:35:40;;;;;;;15.43;5.80;;;8.10;99.90;;;8.08;69.78;100652.75;5052313;28;20118;-72
2021/11/29 08:38:11;;;;;;;16.67;5.70;;;8.20;99.90;;;8.31;69.22;100673.00;5052405;28;20102;-75
2021/11/29 08:40:40;;;;;;;17.65;6.32;;;8.30;99.90;;;8.36;68.09;100685.34;5052631;28;20103;-72
2021/11/29 08:43:11;;;;;;;15.70;4.88;;;8.40;99.90;;;8.37;66.68;100676.53;5055495;28;20045;-72
2021/11/29 08:45:41;;;;;;;16.60;5.95;;;8.50;99.90;;;8.58;65.96;100700.28;5054427;28;20045;-72
2021/11/29 08:48:12;;;;;;;14.57;5.32;;;8.60;99.90;;;8.60;65.00;100695.00;5055516;28;20047;-71
2021/11/29 08:50:46;;;;;;;15.45;5.40;;;8.70;99.90;;;8.74;65.35;100688.88;5055558;28;20060;-72
2021/11/29 08:53:19;;;;;;;18.10;4.70;;;8.70;99.90;;;8.71;65.25;100704.69;5055408;28;20114;-74
2021/11/29 08:55:48;;;;;;;18.90;5.30;;;8.70;99.90;;;8.79;65.21;100712.59;5054225;28;20487;-73
2021/11/29 08:58:18;;;;;;;13.40;5.28;;;8.80;99.90;;;8.48;65.70;100710.84;5055499;28;20106;-73
2021/11/29 09:00:52;;;;;;;13.35;4.63;;;8.50;99.90;;;8.43;65.40;100709.94;5055200;28;20049;-73
2021/11/29 09:03:21;;;;;;;12.05;5.10;;;8.50;99.90;;;8.29;65.61;100686.19;5055795;28;20051;-74
2021/11/29 09:05:51;;;;;;;12.73;4.22;;;8.40;99.90;;;8.52;65.27;100718.72;5055018;28;20045;-73
2021/11/29 09:08:21;;;;;;;15.07;5.65;;;8.50;99.90;;;8.55;64.77;100729.28;5055466;28;20033;-73
2021/11/29 09:10:51;;;;;;;17.83;5.35;;;8.50;99.90;;;8.40;65.01;100731.03;5055792;28;20037;-73
2021/11/29 09:13:40;;;;;;;26.77;5.63;;;8.40;99.90;;;8.54;64.65;100730.16;5054943;28;20040;-72
2021/11/29 09:16:13;;;;;;;12.75;5.18;;;8.50;99.90;;;8.46;65.73;100744.22;5054957;28;20072;-73
2021/11/29 09:18:43;;;;;;;13.18;4.90;;;8.40;99.90;;;8.52;65.49;100738.94;5055008;28;20469;-72
2021/11/29 09:21:14;;;;;;;16.95;5.45;;;8.50;99.90;;;8.36;65.16;100722.22;5054760;28;20144;-72
2021/11/29 09:23:46;;;;;;;20.33;5.18;;;8.50;99.90;;;8.43;65.62;100736.28;5054900;28;20037;-72
2021/11/29 09:26:15;;;;;;;20.42;4.78;;;8.50;99.90;;;8.17;67.03;100751.97;5054463;28;20057;-73
2021/11/29 09:28:43;;;;;;;16.90;4.72;;;8.20;99.90;;;8.01;67.11;100716.81;5054759;28;20049;-72
2021/11/29 09:31:13;;;;;;;21.80;5.30;;;8.10;99.90;;;7.32;67.76;100634.06;5054671;28;20044;-72
2021/11/29 09:33:43;;;;;;;18.77;5.63;;;8.00;99.90;;;8.11;68.26;100757.22;5054934;28;20056;-72
2021/11/29 09:36:11;;;;;;;21.15;6.43;;;8.00;99.90;;;8.22;68.13;100758.16;5054521;28;20041;-72
2021/11/29 09:38:43;;;;;;;16.25;5.03;;;8.10;99.90;;;8.07;68.02;100755.47;5055127;28;20087;-73
2021/11/29 09:41:13;;;;;;;16.75;4.95;;;8.10;99.90;;;7.97;68.31;100754.56;5054575;28;20161;-72
2021/11/29 09:43:41;;;;;;;21.80;5.20;;;7.90;99.90;;;8.14;68.68;100763.41;5054451;28;20120;-72
2021/11/29 09:46:10;;;;;;;22.15;6.00;;;8.00;99.90;;;8.37;67.46;100765.25;5054267;28;20091;-72
2021/11/29 09:48:38;;;;;;;17.80;5.30;;;8.20;99.90;;;8.35;67.86;100769.63;5054366;28;20047;-72
2021/11/29 09:51:27;;;;;;;15.63;5.22;;;8.30;99.90;;;8.50;67.41;100783.75;5054231;28;20132;-73
2021/11/29 09:53:57;;;;;;;24.45;6.15;;;8.40;99.90;;;8.65;67.07;100772.34;5054186;28;20064;-72
2021/11/29 09:56:26;;;;;;;14.85;5.88;;;8.60;99.90;;;8.60;66.76;100780.25;5054604;28;20061;-72
2021/11/29 09:58:55;;;;;;;19.83;5.15;;;8.50;99.90;;;8.72;66.24;100785.56;5054165;28;20053;-73
2021/11/29 10:01:24;;;;;;;16.38;5.32;;;8.60;99.90;;;8.80;65.78;100773.25;5054656;28;20053;-72
2021/11/29 10:04:02;;;;;;;17.08;5.20;;;8.80;99.90;;;9.09;65.47;100794.38;5054120;28;20055;-72
2021/11/29 10:06:34;;;;;;;16.42;5.07;;;9.00;99.90;;;9.23;65.38;100797.03;5053925;28;20395;-72
2021/11/29 10:09:35;;;;;;;17.30;4.90;;;9.10;99.90;;;9.24;65.06;100806.69;5054183;28;20094;-72
2021/11/29 10:12:28;;;;;;;15.38;4.93;;;9.20;99.90;;;9.38;64.37;100804.91;5053778;28;20498;-73
2021/11/29 10:15:24;;;;;;;17.02;5.60;;;9.30;99.90;;;9.25;64.13;100798.78;5052838;28;20422;-72
2021/11/29 10:18:03;;;;;;;18.02;5.35;;;9.30;99.90;;;9.42;64.53;100797.00;5053836;28;20504;-72
2021/11/29 10:21:05;;;;;;;17.98;4.63;;;9.40;99.90;;;9.54;64.22;100796.97;5054150;28;20566;-72
2021/11/29 10:23:37;;;;;;;16.10;5.00;;;9.50;99.90;;;9.55;63.78;100793.47;5069139;28;20422;-72
2021/11/29 10:26:12;;;;;;;12.18;4.63;;;9.50;99.90;;;9.53;63.98;100792.59;5053855;28;20049;-72
2021/11/29 10:28:44;;;;;;;12.95;4.60;;;9.50;99.90;;;9.27;64.50;100799.63;5053545;28;20453;-73
2021/11/29 10:31:32;;;;;;;12.57;5.10;;;9.30;99.90;;;9.43;64.09;100788.19;5053490;28;20049;-72
2021/11/29 10:34:05;;;;;;;12.48;4.68;;;9.30;99.90;;;9.42;64.00;100797.00;5054084;28;20044;-72
2021/11/29 10:36:38;;;;;;;12.23;4.90;;;9.40;99.90;;;9.44;64.25;100789.97;5053460;28;20056;-72